createdAt,value
2019-04-01T00:00:00.729Z,72.85
2019-04-01T00:01:00.700Z,73.52
2019-04-01T00:02:00.673Z,72.47
2019-04-01T00:03:00.650Z,72.19
2019-04-01T00:04:00.631Z,72.66
2019-04-01T00:05:00.615Z,72.75
2019-04-01T00:06:00.586Z,72.85
2019-04-01T00:07:00.570Z,72.95
2019-04-01T00:08:00.543Z,73.04
2019-04-01T00:09:00.526Z,73.14
2019-04-01T00:10:00.508Z,73.10
2019-04-01T00:11:00.482Z,73.67
2019-04-01T00:12:00.460Z,73.99
2019-04-01T00:13:00.438Z,73.76
2019-04-01T00:14:00.416Z,74.15
2019-04-01T00:15:00.396Z,73.96
2019-04-01T00:16:00.377Z,73.48
2019-04-01T00:17:00.352Z,74.24
2019-04-01T00:18:00.332Z,74.15
2019-04-01T00:19:03.447Z,73.96
2019-04-01T00:20:00.367Z,73.57
2019-04-01T00:21:00.307Z,73.67
2019-04-01T00:22:00.243Z,73.67
2019-04-01T00:23:00.367Z,73.67
2019-04-01T00:24:00.199Z,74.05
2019-04-01T00:25:00.356Z,74.43
2019-04-01T00:26:00.156Z,74.52
2019-04-01T00:27:00.133Z,74.15
2019-04-01T00:28:00.112Z,74.05
2019-04-01T00:29:00.089Z,74.52
2019-04-01T00:30:00.109Z,74.05
2019-04-01T00:31:00.047Z,74.62
2019-04-01T00:32:00.025Z,74.81
2019-04-01T00:33:00.004Z,74.71
2019-04-01T00:33:59.982Z,74.24
2019-04-01T00:34:59.983Z,74.43
2019-04-01T00:35:59.940Z,74.33
2019-04-01T00:36:59.918Z,74.15
2019-04-01T00:37:59.896Z,74.05
2019-04-01T00:38:59.881Z,73.96
2019-04-01T00:39:59.853Z,74.43
2019-04-01T00:40:59.829Z,74.15
2019-04-01T00:41:59.806Z,74.05
2019-04-01T00:42:59.786Z,74.52
2019-04-01T00:43:59.764Z,74.24
2019-04-01T00:44:59.742Z,73.96
2019-04-01T00:45:59.722Z,73.76
2019-04-01T00:46:59.699Z,74.43
2019-04-01T00:47:59.677Z,73.48
2019-04-01T00:48:59.655Z,73.86
2019-04-01T00:49:59.634Z,73.57
2019-04-01T00:50:59.623Z,73.48
2019-04-01T00:51:59.590Z,73.76
2019-04-01T00:52:59.568Z,73.10
2019-04-01T00:53:59.544Z,73.67
2019-04-01T00:54:59.527Z,73.96
2019-04-01T00:55:59.503Z,73.86
2019-04-01T00:56:59.481Z,73.96
2019-04-01T00:57:59.458Z,73.38
2019-04-01T00:58:59.439Z,73.67
2019-04-01T00:59:59.418Z,73.29
2019-04-01T01:00:59.395Z,74.05
2019-04-01T01:01:59.379Z,73.96
2019-04-01T01:02:59.349Z,74.43
2019-04-01T01:03:59.332Z,73.76
2019-04-01T01:04:59.310Z,74.43
2019-04-01T01:05:59.283Z,73.96
2019-04-01T01:06:59.266Z,74.24
2019-04-01T01:07:59.251Z,74.43
2019-04-01T01:08:59.221Z,74.81
2019-04-01T01:09:59.198Z,74.71
2019-04-01T01:10:59.178Z,75.19
2019-04-01T01:11:59.159Z,75.95
2019-04-01T01:12:59.134Z,75.76
2019-04-01T01:13:59.110Z,75.47
2019-04-01T01:14:59.104Z,75.76
2019-04-01T01:15:59.076Z,76.23
2019-04-01T01:16:59.050Z,75.72
2019-04-01T01:17:59.021Z,75.76
2019-04-01T01:18:59.004Z,75.76
2019-04-01T01:19:58.980Z,75.28
2019-04-01T01:20:58.959Z,74.81
2019-04-01T01:21:58.945Z,75.09
2019-04-01T01:22:58.913Z,75.24
2019-04-01T01:23:58.891Z,75.72
2019-04-01T01:24:58.871Z,76.01
2019-04-01T01:25:58.848Z,76.48
2019-04-01T01:26:58.831Z,76.48
2019-04-01T01:27:58.804Z,76.01
2019-04-01T01:28:58.792Z,76.01
2019-04-01T01:29:58.766Z,76.10
2019-04-01T01:30:58.739Z,75.38
2019-04-01T01:31:58.721Z,75.47
2019-04-01T01:32:58.699Z,75.76
2019-04-01T01:33:58.673Z,75.19
2019-04-01T01:34:58.652Z,75.19
2019-04-01T01:35:58.635Z,75.09
2019-04-01T01:36:58.610Z,75.00
2019-04-01T01:37:58.585Z,75.38
2019-04-01T01:38:58.561Z,74.81
2019-04-01T01:39:58.543Z,75.00
2019-04-01T01:40:58.607Z,74.90
2019-04-01T01:41:58.497Z,74.52
2019-04-01T01:42:58.475Z,74.81
2019-04-01T01:43:58.453Z,75.38
2019-04-01T01:44:58.480Z,75.19
2019-04-01T01:45:58.417Z,74.52
2019-04-01T01:46:58.391Z,74.71
2019-04-01T01:47:58.371Z,74.33
2019-04-01T01:48:58.353Z,74.33
2019-04-01T01:49:58.322Z,74.52
2019-04-01T01:50:58.302Z,74.52
2019-04-01T01:51:58.277Z,74.43
2019-04-01T01:52:58.259Z,74.24
2019-04-01T01:53:58.237Z,74.33
2019-04-01T01:54:58.213Z,74.05
2019-04-01T01:55:58.193Z,74.52
2019-04-01T01:56:58.174Z,73.96
2019-04-01T01:57:58.150Z,73.96
2019-04-01T01:58:58.129Z,74.90
2019-04-01T01:59:58.104Z,75.28
2019-04-01T02:00:58.084Z,74.90
2019-04-01T02:01:58.061Z,74.90
2019-04-01T02:02:58.042Z,74.62
2019-04-01T02:03:58.119Z,74.81
2019-04-01T02:04:57.999Z,75.00
2019-04-01T02:05:57.983Z,75.19
2019-04-01T02:06:57.954Z,75.28
2019-04-01T02:07:57.930Z,75.19
2019-04-01T02:08:57.912Z,75.47
2019-04-01T02:09:57.884Z,75.09
2019-04-01T02:10:57.863Z,74.81
2019-04-01T02:11:57.848Z,75.19
2019-04-01T02:12:57.818Z,75.09
2019-04-01T02:13:57.801Z,75.00
2019-04-01T02:14:57.774Z,75.28
2019-04-01T02:15:57.751Z,74.81
2019-04-01T02:16:57.731Z,75.19
2019-04-01T02:17:57.711Z,75.38
2019-04-01T02:18:57.686Z,75.09
2019-04-01T02:19:57.668Z,75.09
2019-04-01T02:20:57.642Z,75.09
2019-04-01T02:21:57.620Z,75.19
2019-04-01T02:22:57.601Z,75.19
2019-04-01T02:23:57.579Z,75.19
2019-04-01T02:24:57.557Z,75.62
2019-04-01T02:25:57.545Z,75.72
2019-04-01T02:26:57.516Z,75.53
2019-04-01T02:27:57.490Z,75.85
2019-04-01T02:28:57.476Z,75.43
2019-04-01T02:29:57.446Z,75.53
2019-04-01T02:30:57.422Z,75.57
2019-04-01T02:31:57.403Z,75.47
2019-04-01T02:32:57.379Z,75.57
2019-04-01T02:33:57.358Z,75.57
2019-04-01T02:34:57.342Z,75.57
2019-04-01T02:35:57.313Z,75.47
2019-04-01T02:36:57.295Z,75.67
2019-04-01T02:37:57.270Z,75.57
2019-04-01T02:38:57.250Z,76.39
2019-04-01T02:39:57.224Z,76.01
2019-04-01T02:40:57.216Z,76.20
2019-04-01T02:41:57.183Z,76.32
2019-04-01T02:42:57.172Z,76.29
2019-04-01T02:43:57.139Z,76.48
2019-04-01T02:44:57.118Z,76.01
2019-04-01T02:45:57.094Z,75.91
2019-04-01T02:46:57.072Z,76.76
2019-04-01T02:47:57.054Z,76.57
2019-04-01T02:48:57.028Z,76.48
2019-04-01T02:49:57.012Z,76.67
2019-04-01T02:50:56.985Z,76.57
2019-04-01T02:51:56.959Z,76.76
2019-04-01T02:52:56.947Z,76.67
2019-04-01T02:53:56.929Z,76.57
2019-04-01T02:54:56.897Z,76.57
2019-04-01T02:55:56.881Z,76.86
2019-04-01T02:56:56.854Z,76.29
2019-04-01T02:57:56.844Z,76.29
2019-04-01T02:58:56.807Z,76.29
2019-04-01T02:59:56.807Z,76.29
2019-04-01T03:00:56.882Z,76.95
2019-04-01T03:01:56.761Z,77.05
2019-04-01T03:02:56.721Z,77.05
2019-04-01T03:03:56.735Z,77.14
2019-04-01T03:04:56.682Z,76.95
2019-04-01T03:05:56.663Z,77.62
2019-04-01T03:06:56.647Z,77.81
2019-04-01T03:07:56.606Z,77.24
2019-04-01T03:08:56.590Z,77.81
2019-04-01T03:09:56.573Z,77.71
2019-04-01T03:10:56.545Z,77.90
2019-04-01T03:11:56.544Z,77.81
2019-04-01T03:12:56.498Z,77.71
2019-04-01T03:13:56.474Z,77.71
2019-04-01T03:14:56.453Z,77.33
2019-04-01T03:15:56.432Z,77.43
2019-04-01T03:16:56.409Z,78.09
2019-04-01T03:17:56.386Z,78.09
2019-04-01T03:18:56.366Z,77.62
2019-04-01T03:19:56.344Z,77.62
2019-04-01T03:20:56.320Z,77.52
2019-04-01T03:21:56.293Z,77.33
2019-04-01T03:22:56.277Z,77.52
2019-04-01T03:23:56.250Z,77.71
2019-04-01T03:24:56.229Z,77.90
2019-04-01T03:25:56.206Z,77.62
2019-04-01T03:26:56.191Z,77.71
2019-04-01T03:27:56.178Z,77.33
2019-04-01T03:28:56.160Z,77.52
2019-04-01T03:29:56.123Z,77.62
2019-04-01T03:30:56.100Z,78.38
2019-04-01T03:31:56.081Z,78.09
2019-04-01T03:32:56.051Z,78.19
2019-04-01T03:33:56.202Z,78.00
2019-04-01T03:34:56.044Z,78.09
2019-04-01T03:35:55.993Z,78.09
2019-04-01T03:36:55.963Z,77.90
2019-04-01T03:37:55.941Z,77.81
2019-04-01T03:38:55.920Z,77.71
2019-04-01T03:39:55.893Z,77.71
2019-04-01T03:40:55.876Z,77.81
2019-04-01T03:41:55.857Z,77.81
2019-04-01T03:42:55.848Z,77.81
2019-04-01T03:43:55.806Z,78.00
2019-04-01T03:44:55.788Z,78.09
2019-04-01T03:45:55.763Z,77.90
2019-04-01T03:46:55.740Z,78.09
2019-04-01T03:47:55.719Z,78.56
2019-04-01T03:48:55.711Z,78.66
2019-04-01T03:49:55.674Z,78.38
2019-04-01T03:50:55.654Z,78.47
2019-04-01T03:51:55.652Z,78.47
2019-04-01T03:52:55.607Z,78.56
2019-04-01T03:53:55.591Z,78.56
2019-04-01T03:54:55.563Z,78.56
2019-04-01T03:55:55.541Z,78.28
2019-04-01T03:56:55.629Z,78.75
2019-04-01T03:57:55.496Z,78.85
2019-04-01T03:58:55.483Z,78.95
2019-04-01T03:59:55.454Z,78.95
2019-04-01T04:00:55.429Z,78.95
2019-04-01T04:01:55.409Z,79.23
2019-04-01T04:02:55.386Z,79.33
2019-04-01T04:03:55.360Z,78.75
2019-04-01T04:04:55.337Z,78.95
2019-04-01T04:05:55.318Z,78.85
2019-04-01T04:06:55.291Z,79.04
2019-04-01T04:07:55.279Z,78.75
2019-04-01T04:08:55.259Z,79.14
2019-04-01T04:09:55.236Z,79.14
2019-04-01T04:10:55.218Z,79.71
2019-04-01T04:11:55.191Z,79.47
2019-04-01T04:12:55.160Z,79.19
2019-04-01T04:13:55.137Z,79.38
2019-04-01T04:14:55.124Z,79.57
2019-04-01T04:15:55.094Z,79.76
2019-04-01T04:16:55.075Z,79.28
2019-04-01T04:17:55.052Z,79.80
2019-04-01T04:18:55.025Z,79.61
2019-04-01T04:19:55.016Z,79.80
2019-04-01T04:20:54.980Z,79.61
2019-04-01T04:21:54.973Z,79.71
2019-04-01T04:22:54.935Z,79.71
2019-04-01T04:23:54.913Z,79.33
2019-04-01T04:24:54.891Z,79.71
2019-04-01T04:25:54.876Z,79.42
2019-04-01T04:26:54.848Z,79.14
2019-04-01T04:27:54.826Z,79.61
2019-04-01T04:28:54.806Z,79.71
2019-04-01T04:29:54.779Z,79.80
2019-04-01T04:30:54.774Z,79.80
2019-04-01T04:31:54.740Z,79.71
2019-04-01T04:32:54.718Z,79.23
2019-04-01T04:33:54.691Z,79.23
2019-04-01T04:34:57.271Z,79.57
2019-04-01T04:35:54.645Z,79.61
2019-04-01T04:36:54.625Z,79.90
2019-04-01T04:37:54.610Z,79.85
2019-04-01T04:38:54.579Z,79.80
2019-04-01T04:39:54.559Z,79.80
2019-04-01T04:40:54.537Z,79.71
2019-04-01T04:41:54.513Z,79.14
2019-04-01T04:42:54.498Z,79.33
2019-04-01T04:43:54.466Z,79.47
2019-04-01T04:44:54.445Z,79.42
2019-04-01T04:45:54.422Z,79.76
2019-04-01T04:46:54.412Z,79.95
2019-04-01T04:47:54.386Z,79.95
2019-04-01T04:48:54.363Z,80.04
2019-04-01T04:49:54.329Z,80.04
2019-04-01T04:50:54.310Z,80.04
2019-04-01T04:51:54.290Z,79.85
2019-04-01T04:52:54.267Z,80.52
2019-04-01T04:53:54.242Z,80.33
2019-04-01T04:54:54.219Z,79.95
2019-04-01T04:55:54.196Z,79.95
2019-04-01T04:56:54.177Z,80.33
2019-04-01T04:57:54.148Z,80.33
2019-04-01T04:58:54.137Z,80.33
2019-04-01T04:59:54.107Z,80.43
2019-04-01T05:00:54.094Z,80.24
2019-04-01T05:01:54.060Z,79.95
2019-04-01T05:02:54.039Z,79.95
2019-04-01T05:03:54.019Z,80.43
2019-04-01T05:04:53.995Z,80.33
2019-04-01T05:05:53.969Z,80.04
2019-04-01T05:06:53.953Z,80.33
2019-04-01T05:07:53.926Z,80.33
2019-04-01T05:08:53.913Z,81.09
2019-04-01T05:09:53.879Z,80.99
2019-04-01T05:10:53.866Z,80.62
2019-04-01T05:11:53.837Z,80.71
2019-04-01T05:12:53.819Z,80.80
2019-04-01T05:13:53.795Z,80.80
2019-04-01T05:14:53.773Z,80.80
2019-04-01T05:15:53.745Z,80.80
2019-04-01T05:16:53.728Z,80.71
2019-04-01T05:17:53.703Z,80.90
2019-04-01T05:18:53.679Z,80.71
2019-04-01T05:19:53.657Z,80.80
2019-04-01T05:20:53.632Z,80.80
2019-04-01T05:21:53.610Z,81.27
2019-04-01T05:22:53.591Z,81.37
2019-04-01T05:23:53.569Z,80.90
2019-04-01T05:24:53.544Z,80.90
2019-04-01T05:25:53.521Z,81.18
2019-04-01T05:26:53.504Z,80.80
2019-04-01T05:27:53.477Z,81.27
2019-04-01T05:28:53.454Z,81.27
2019-04-01T05:29:53.435Z,80.71
2019-04-01T05:30:53.413Z,80.90
2019-04-01T05:31:53.391Z,80.71
2019-04-01T05:32:53.371Z,80.99
2019-04-01T05:33:55.654Z,80.04
2019-04-01T05:34:53.323Z,80.14
2019-04-01T05:35:53.300Z,80.04
2019-04-01T05:36:53.280Z,79.95
2019-04-01T05:37:53.257Z,79.95
2019-04-01T05:38:53.230Z,80.04
2019-04-01T05:39:53.215Z,80.33
2019-04-01T05:40:53.187Z,80.43
2019-04-01T05:41:53.166Z,80.52
2019-04-01T05:42:53.144Z,80.33
2019-04-01T05:43:53.120Z,80.24
2019-04-01T05:44:53.098Z,80.52
2019-04-01T05:45:53.076Z,80.04
2019-04-01T05:46:53.058Z,80.04
2019-04-01T05:47:53.037Z,79.99
2019-04-01T05:48:53.012Z,79.80
2019-04-01T05:49:52.983Z,79.14
2019-04-01T05:50:52.958Z,79.33
2019-04-01T05:51:52.943Z,79.23
2019-04-01T05:52:52.914Z,79.80
2019-04-01T05:53:52.895Z,79.61
2019-04-01T05:54:52.871Z,79.42
2019-04-01T05:55:52.849Z,79.14
2019-04-01T05:56:52.838Z,79.33
2019-04-01T05:57:52.806Z,79.04
2019-04-01T05:58:52.785Z,79.04
2019-04-01T05:59:52.767Z,79.04
2019-04-01T06:00:52.738Z,79.33
2019-04-01T06:01:52.718Z,79.23
2019-04-01T06:02:52.693Z,78.95
2019-04-01T06:03:52.676Z,78.66
2019-04-01T06:04:52.655Z,78.66
2019-04-01T06:05:52.627Z,78.38
2019-04-01T06:06:52.605Z,78.47
2019-04-01T06:07:52.581Z,78.56
2019-04-01T06:08:52.562Z,78.56
2019-04-01T06:09:52.538Z,78.09
2019-04-01T06:10:52.516Z,78.47
2019-04-01T06:11:52.501Z,78.09
2019-04-01T06:12:52.482Z,78.09
2019-04-01T06:13:52.462Z,77.90
2019-04-01T06:14:52.429Z,78.09
2019-04-01T06:15:52.410Z,77.62
2019-04-01T06:16:52.387Z,77.62
2019-04-01T06:17:52.370Z,77.62
2019-04-01T06:18:52.350Z,77.62
2019-04-01T06:19:52.320Z,77.71
2019-04-01T06:20:52.298Z,77.52
2019-04-01T06:21:52.279Z,77.24
2019-04-01T06:22:52.264Z,76.86
2019-04-01T06:23:52.236Z,76.20
2019-04-01T06:24:52.210Z,76.57
2019-04-01T06:25:52.189Z,76.76
2019-04-01T06:26:52.250Z,76.57
2019-04-01T06:27:52.146Z,76.67
2019-04-01T06:28:52.125Z,76.01
2019-04-01T06:29:52.107Z,76.20
2019-04-01T06:30:52.079Z,76.23
2019-04-01T06:31:52.087Z,75.47
2019-04-01T06:32:52.041Z,75.47
2019-04-01T06:33:52.018Z,75.57
2019-04-01T06:34:52.948Z,75.00
2019-04-01T06:35:51.971Z,75.09
2019-04-01T06:36:51.949Z,75.19
2019-04-01T06:37:51.934Z,74.81
2019-04-01T06:38:51.907Z,74.71
2019-04-01T06:39:51.884Z,74.81
2019-04-01T06:40:51.869Z,74.05
2019-04-01T06:41:51.844Z,74.24
2019-04-01T06:42:51.822Z,74.24
2019-04-01T06:43:51.800Z,73.86
2019-04-01T06:44:51.781Z,74.08
2019-04-01T06:45:51.757Z,73.90
2019-04-01T06:46:51.737Z,74.18
2019-04-01T06:47:51.722Z,73.48
2019-04-01T06:48:51.693Z,72.56
2019-04-01T06:49:51.671Z,72.28
2019-04-01T06:50:51.655Z,72.66
2019-04-01T06:51:51.633Z,72.75
2019-04-01T06:52:51.641Z,72.28
2019-04-01T06:53:51.590Z,72.28
2019-04-01T06:54:51.566Z,72.19
2019-04-01T06:55:51.545Z,71.62
2019-04-01T06:56:51.523Z,70.95
2019-04-01T06:57:51.501Z,70.67
2019-04-01T06:58:51.480Z,70.76
2019-04-01T06:59:51.462Z,70.29
2019-04-01T07:00:51.442Z,70.00
2019-04-01T07:01:51.419Z,70.04
2019-04-01T07:02:51.400Z,70.32
2019-04-01T07:03:51.377Z,68.99
2019-04-01T07:04:51.360Z,68.84
2019-04-01T07:05:51.339Z,67.79
2019-04-01T07:06:51.320Z,66.65
2019-04-01T07:07:51.305Z,68.77
2019-04-01T07:08:51.291Z,68.52
2019-04-01T07:09:51.268Z,65.19
2019-04-01T07:10:51.252Z,62.46
2019-04-01T07:11:51.243Z,61.51
2019-04-01T07:12:51.223Z,60.30
2019-04-01T07:13:51.207Z,58.91
2019-04-01T07:14:51.196Z,58.07
2019-04-01T07:15:51.178Z,56.26
2019-04-01T07:16:51.170Z,55.41
2019-04-01T07:17:51.162Z,55.18
2019-04-01T07:18:51.146Z,54.13
2019-04-01T07:19:51.131Z,53.17
2019-04-01T07:20:51.122Z,52.69
2019-04-01T07:21:54.333Z,51.93
2019-04-01T07:22:51.101Z,51.93
2019-04-01T07:23:51.087Z,51.95
2019-04-01T07:24:51.081Z,51.31
2019-04-01T07:25:51.067Z,50.71
2019-04-01T07:26:51.064Z,50.26
2019-04-01T07:27:51.049Z,49.40
2019-04-01T07:28:51.049Z,48.16
2019-04-01T07:29:51.032Z,48.25
2019-04-01T07:30:51.032Z,47.97
2019-04-01T07:31:51.018Z,47.89
2019-04-01T07:32:51.013Z,47.71
2019-04-01T07:33:51.010Z,47.32
2019-04-01T07:34:50.996Z,46.87
2019-04-01T07:35:50.999Z,45.91
2019-04-01T07:36:50.995Z,46.39
2019-04-01T07:37:50.974Z,45.96
2019-04-01T07:38:50.974Z,45.17
2019-04-01T07:39:50.969Z,44.33
2019-04-01T07:40:50.959Z,43.18
2019-04-01T07:41:51.044Z,43.62
2019-04-01T07:42:50.945Z,44.12
2019-04-01T07:43:50.939Z,44.09
2019-04-01T07:44:50.939Z,44.38
2019-04-01T07:45:50.930Z,43.92
2019-04-01T07:46:50.927Z,43.77
2019-04-01T07:47:51.794Z,42.24
2019-04-01T07:48:50.916Z,41.63
2019-04-01T07:49:50.982Z,40.50
2019-04-01T07:50:50.905Z,39.04
2019-04-01T07:51:50.904Z,38.56
2019-04-01T07:52:50.902Z,38.64
2019-04-01T07:53:50.900Z,38.95
2019-04-01T07:54:50.885Z,39.43
2019-04-01T07:55:50.893Z,38.96
2019-04-01T07:56:50.880Z,38.10
2019-04-01T07:57:50.881Z,37.37
2019-04-01T07:58:50.871Z,36.54
2019-04-01T07:59:50.871Z,35.68
2019-04-01T08:00:50.863Z,35.83
2019-04-01T08:01:52.830Z,35.64
2019-04-01T08:02:50.859Z,35.99
2019-04-01T08:03:50.867Z,36.38
2019-04-01T08:04:50.859Z,36.57
2019-04-01T08:05:50.850Z,37.41
2019-04-01T08:06:50.847Z,37.34
2019-04-01T08:07:50.843Z,36.93
2019-04-01T08:08:50.846Z,37.62
2019-04-01T08:09:50.841Z,37.55
2019-04-01T08:10:50.840Z,36.41
2019-04-01T08:11:50.829Z,35.95
2019-04-01T08:12:50.834Z,35.89
2019-04-01T08:13:50.826Z,34.64
2019-04-01T08:14:50.831Z,34.05
2019-04-01T08:15:50.831Z,34.65
2019-04-01T08:16:50.820Z,36.95
2019-04-01T08:17:50.819Z,36.88
2019-04-01T08:18:50.820Z,36.60
2019-04-01T08:19:50.821Z,35.77
2019-04-01T08:20:50.820Z,34.74
2019-04-01T08:21:52.490Z,33.56
2019-04-01T08:22:50.808Z,34.53
2019-04-01T08:23:50.812Z,34.11
2019-04-01T08:24:50.813Z,35.83
2019-04-01T08:25:50.803Z,35.85
2019-04-01T08:26:50.810Z,35.55
2019-04-01T08:27:50.800Z,35.74
2019-04-01T08:28:50.802Z,36.22
2019-04-01T08:29:50.794Z,36.22
2019-04-01T08:30:50.790Z,35.66
2019-04-01T08:31:50.788Z,35.49
2019-04-01T08:32:50.786Z,35.02
2019-04-01T08:33:50.784Z,34.72
2019-04-01T08:34:50.783Z,35.08
2019-04-01T08:35:50.783Z,35.49
2019-04-01T08:36:50.776Z,35.02
2019-04-01T08:37:50.782Z,35.06
2019-04-01T08:38:50.770Z,34.11
2019-04-01T08:39:50.770Z,32.70
2019-04-01T08:40:50.769Z,33.87
2019-04-01T08:41:50.767Z,34.72
2019-04-01T08:42:50.768Z,35.74
2019-04-01T08:43:50.765Z,36.51
2019-04-01T08:44:50.760Z,36.45
2019-04-01T08:45:50.759Z,35.02
2019-04-01T08:46:50.757Z,34.09
2019-04-01T08:47:50.758Z,33.42
2019-04-01T08:48:50.754Z,32.94
2019-04-01T08:49:50.757Z,32.75
2019-04-01T08:50:50.760Z,33.42
2019-04-01T08:51:50.755Z,32.76
2019-04-01T08:52:50.750Z,32.87
2019-04-01T08:53:50.744Z,34.33
2019-04-01T08:54:52.378Z,34.35
2019-04-01T08:55:50.745Z,33.48
2019-04-01T08:56:50.738Z,34.86
2019-04-01T08:57:50.736Z,35.57
2019-04-01T08:58:50.738Z,35.60
2019-04-01T08:59:50.739Z,34.21
2019-04-01T09:00:50.740Z,32.65
2019-04-01T09:01:50.725Z,32.95
2019-04-01T09:02:50.725Z,32.10
2019-04-01T09:03:50.728Z,31.35
2019-04-01T09:04:50.723Z,31.15
2019-04-01T09:05:50.818Z,30.79
2019-04-01T09:06:50.713Z,29.87
2019-04-01T09:07:50.707Z,31.00
2019-04-01T09:08:50.713Z,32.51
2019-04-01T09:09:50.709Z,34.39
2019-04-01T09:10:50.707Z,35.63
2019-04-01T09:11:50.696Z,36.51
2019-04-01T09:12:50.772Z,35.30
2019-04-01T09:13:50.694Z,34.16
2019-04-01T09:14:50.684Z,33.93
2019-04-01T09:15:50.682Z,34.62
2019-04-01T09:16:50.689Z,34.75
2019-04-01T09:17:50.672Z,33.48
2019-04-01T09:18:50.671Z,33.21
2019-04-01T09:19:50.667Z,32.95
2019-04-01T09:20:50.663Z,32.26
2019-04-01T09:21:50.657Z,32.17
2019-04-01T09:22:50.649Z,32.06
2019-04-01T09:23:52.299Z,32.75
2019-04-01T09:24:50.639Z,32.43
2019-04-01T09:25:50.633Z,33.42
2019-04-01T09:26:50.623Z,32.68
2019-04-01T09:27:50.616Z,31.33
2019-04-01T09:28:50.617Z,31.07
2019-04-01T09:29:50.605Z,31.17
2019-04-01T09:30:50.601Z,30.29
2019-04-01T09:31:50.594Z,30.88
2019-04-01T09:32:50.588Z,29.91
2019-04-01T09:33:50.588Z,29.63
2019-04-01T09:34:50.579Z,29.80
2019-04-01T09:35:50.569Z,30.85
2019-04-01T09:36:50.562Z,31.25
2019-04-01T09:37:50.552Z,31.18
2019-04-01T09:38:50.557Z,29.80
2019-04-01T09:39:50.550Z,31.17
2019-04-01T09:40:50.540Z,30.21
2019-04-01T09:41:50.581Z,29.52
2019-04-01T09:42:50.520Z,30.03
2019-04-01T09:43:50.513Z,29.94
2019-04-01T09:44:50.508Z,28.98
2019-04-01T09:45:50.497Z,28.39
2019-04-01T09:46:50.488Z,28.78
2019-04-01T09:47:50.479Z,28.50
2019-04-01T09:48:50.479Z,28.08
2019-04-01T09:49:50.482Z,28.18
2019-04-01T09:50:50.471Z,29.95
2019-04-01T09:51:50.454Z,30.53
2019-04-01T09:52:50.446Z,31.19
2019-04-01T09:53:50.432Z,32.25
2019-04-01T09:54:50.425Z,32.25
2019-04-01T09:55:50.418Z,32.36
2019-04-01T09:56:50.407Z,31.88
2019-04-01T09:57:50.398Z,31.88
2019-04-01T09:58:50.390Z,31.48
2019-04-01T09:59:50.381Z,31.96
2019-04-01T10:00:53.272Z,32.46
2019-04-01T10:01:50.359Z,32.87
2019-04-01T10:02:50.363Z,33.66
2019-04-01T10:03:50.343Z,33.39
2019-04-01T10:04:50.333Z,33.37
2019-04-01T10:05:50.323Z,34.06
2019-04-01T10:06:50.314Z,33.37
2019-04-01T10:07:50.483Z,34.45
2019-04-01T10:08:50.293Z,33.77
2019-04-01T10:09:50.283Z,33.18
2019-04-01T10:10:50.272Z,33.82
2019-04-01T10:11:50.264Z,34.80
2019-04-01T10:12:50.256Z,34.91
2019-04-01T10:13:50.244Z,35.77
2019-04-01T10:14:50.242Z,34.12
2019-04-01T10:15:50.219Z,34.33
2019-04-01T10:16:50.208Z,34.12
2019-04-01T10:17:50.203Z,34.51
2019-04-01T10:18:50.189Z,34.61
2019-04-01T10:19:50.177Z,34.68
2019-04-01T10:20:50.174Z,34.39
2019-04-01T10:21:50.153Z,34.76
2019-04-01T10:22:50.141Z,35.63
2019-04-01T10:23:50.133Z,36.20
2019-04-01T10:24:50.124Z,35.80
2019-04-01T10:25:51.441Z,36.26
2019-04-01T10:26:50.113Z,36.66
2019-04-01T10:27:50.094Z,37.03
2019-04-01T10:28:50.079Z,37.51
2019-04-01T10:29:50.067Z,37.60
2019-04-01T10:30:50.069Z,37.89
2019-04-01T10:31:50.044Z,38.66
2019-04-01T10:32:50.034Z,37.99
2019-04-01T10:33:50.024Z,38.89
2019-04-01T10:34:50.027Z,37.34
2019-04-01T10:35:50.001Z,37.89
2019-04-01T10:36:50.005Z,38.10
2019-04-01T10:37:49.976Z,37.89
2019-04-01T10:38:49.967Z,38.56
2019-04-01T10:39:49.963Z,38.60
2019-04-01T10:40:49.945Z,39.49
2019-04-01T10:41:49.931Z,37.95
2019-04-01T10:42:49.926Z,36.53
2019-04-01T10:43:49.909Z,35.58
2019-04-01T10:44:49.897Z,36.08
2019-04-01T10:45:49.884Z,36.37
2019-04-01T10:46:49.942Z,34.92
2019-04-01T10:47:49.898Z,35.22
2019-04-01T10:48:49.907Z,34.83
2019-04-01T10:49:49.906Z,34.83
2019-04-01T10:50:49.881Z,34.84
2019-04-01T10:51:49.818Z,34.72
2019-04-01T10:52:49.825Z,34.41
2019-04-01T10:53:49.881Z,34.68
2019-04-01T10:54:49.786Z,35.55
2019-04-01T10:55:49.810Z,35.47
2019-04-01T10:56:49.777Z,35.34
2019-04-01T10:57:53.574Z,36.51
2019-04-01T10:58:49.768Z,36.70
2019-04-01T10:59:49.795Z,36.62
2019-04-01T11:00:49.802Z,37.22
2019-04-01T11:01:49.723Z,36.54
2019-04-01T11:02:50.368Z,36.07
2019-04-01T11:03:49.687Z,35.12
2019-04-01T11:04:49.688Z,35.02
2019-04-01T11:05:49.735Z,34.41
2019-04-01T11:06:49.739Z,35.47
2019-04-01T11:07:49.699Z,35.47
2019-04-01T11:08:49.662Z,36.82
2019-04-01T11:09:49.613Z,37.22
2019-04-01T11:10:49.598Z,36.74
2019-04-01T11:11:49.591Z,35.97
2019-04-01T11:12:49.577Z,34.99
2019-04-01T11:13:51.720Z,34.80
2019-04-01T11:14:49.556Z,35.57
2019-04-01T11:15:49.569Z,35.55
2019-04-01T11:16:49.530Z,36.11
2019-04-01T11:17:52.269Z,36.49
2019-04-01T11:18:49.515Z,37.47
2019-04-01T11:19:49.501Z,36.41
2019-04-01T11:20:49.483Z,36.43
2019-04-01T11:21:49.480Z,36.62
2019-04-01T11:22:49.468Z,37.12
2019-04-01T11:23:49.461Z,36.45
2019-04-01T11:24:49.440Z,35.77
2019-04-01T11:25:49.423Z,35.49
2019-04-01T11:26:49.418Z,34.70
2019-04-01T11:27:49.418Z,35.16
2019-04-01T11:28:49.394Z,36.60
2019-04-01T11:29:49.375Z,36.41
2019-04-01T11:30:49.376Z,36.32
2019-04-01T11:31:49.381Z,36.32
2019-04-01T11:32:49.386Z,36.13
2019-04-01T11:33:49.351Z,36.72
2019-04-01T11:34:49.359Z,36.24
2019-04-01T11:35:49.315Z,35.83
2019-04-01T11:36:49.431Z,36.32
2019-04-01T11:37:49.295Z,36.32
2019-04-01T11:38:49.276Z,36.58
2019-04-01T11:39:49.315Z,36.49
2019-04-01T11:40:49.293Z,37.07
2019-04-01T11:41:49.254Z,37.35
2019-04-01T11:42:49.216Z,37.80
2019-04-01T11:43:49.232Z,38.26
2019-04-01T11:44:49.232Z,39.41
2019-04-01T11:45:49.222Z,39.62
2019-04-01T11:46:49.191Z,38.95
2019-04-01T11:47:49.199Z,39.14
2019-04-01T11:48:49.147Z,39.35
2019-04-01T11:49:49.165Z,37.91
2019-04-01T11:50:49.135Z,38.91
2019-04-01T11:51:49.153Z,39.03
2019-04-01T11:52:49.112Z,37.97
2019-04-01T11:53:49.080Z,36.15
2019-04-01T11:54:49.075Z,36.53
2019-04-01T11:55:49.059Z,36.54
2019-04-01T11:56:49.053Z,36.45
2019-04-01T11:57:49.033Z,36.45
2019-04-01T11:58:49.018Z,36.22
2019-04-01T11:59:49.007Z,36.70
2019-04-01T12:00:49.010Z,36.78
2019-04-01T12:01:48.983Z,37.47
2019-04-01T12:02:48.967Z,38.16
2019-04-01T12:03:48.960Z,36.83
2019-04-01T12:04:48.946Z,37.99
2019-04-01T12:05:48.936Z,36.35
2019-04-01T12:06:48.920Z,35.58
2019-04-01T12:07:48.916Z,35.70
2019-04-01T12:08:48.895Z,35.14
2019-04-01T12:09:52.119Z,34.19
2019-04-01T12:10:48.884Z,33.50
2019-04-01T12:11:48.858Z,33.50
2019-04-01T12:12:48.852Z,33.97
2019-04-01T12:13:48.844Z,36.29
2019-04-01T12:14:48.825Z,35.64
2019-04-01T12:15:48.810Z,34.09
2019-04-01T12:16:48.798Z,34.00
2019-04-01T12:17:48.793Z,34.67
2019-04-01T12:18:48.776Z,35.16
2019-04-01T12:19:48.778Z,34.37
2019-04-01T12:20:48.756Z,34.37
2019-04-01T12:21:48.740Z,34.96
2019-04-01T12:22:48.734Z,34.54
2019-04-01T12:23:48.715Z,33.87
2019-04-01T12:24:48.707Z,33.66
2019-04-01T12:25:48.693Z,34.92
2019-04-01T12:26:48.694Z,35.99
2019-04-01T12:27:48.669Z,35.41
2019-04-01T12:28:48.657Z,34.25
2019-04-01T12:29:48.651Z,34.14
2019-04-01T12:30:48.639Z,35.39
2019-04-01T12:31:48.627Z,36.25
2019-04-01T12:32:49.611Z,35.58
2019-04-01T12:33:48.602Z,35.77
2019-04-01T12:34:48.589Z,35.47
2019-04-01T12:35:49.070Z,36.83
2019-04-01T12:36:49.235Z,36.25
2019-04-01T12:37:48.553Z,35.66
2019-04-01T12:38:48.549Z,35.68
2019-04-01T12:39:48.534Z,36.05
2019-04-01T12:40:48.524Z,35.66
2019-04-01T12:41:48.504Z,36.15
2019-04-01T12:42:50.821Z,36.70
2019-04-01T12:43:48.486Z,37.57
2019-04-01T12:44:48.468Z,38.84
2019-04-01T12:45:48.460Z,36.72
2019-04-01T12:46:48.447Z,36.22
2019-04-01T12:47:48.440Z,36.53
2019-04-01T12:48:48.433Z,36.72
2019-04-01T12:49:48.413Z,36.82
2019-04-01T12:50:48.397Z,36.16
2019-04-01T12:51:49.770Z,35.97